createdAt,value
2022-12-06T04:49:40.768Z,458.37
2022-12-06T04:52:55.938Z,448.84
2022-12-06T04:56:02.134Z,468.00
2022-12-06T04:59:11.729Z,473.92
2022-12-06T05:02:19.550Z,460.75
2022-12-06T05:09:01.492Z,423.37
2022-12-06T05:12:57.141Z,480.09
2022-12-06T05:16:47.505Z,479.26
2022-12-06T05:20:31.673Z,536.24
2022-12-06T05:23:44.294Z,856.20
2022-12-06T05:27:29.562Z,605.95
2022-12-06T05:30:53.402Z,460.95
2022-12-06T05:33:59.225Z,537.57
2022-12-06T05:37:21.417Z,526.84
2022-12-06T05:40:31.133Z,518.24
2022-12-06T05:43:39.617Z,540.95
2022-12-06T05:51:07.805Z,576.32
2022-12-06T05:54:17.369Z,563.30
2022-12-06T05:57:41.233Z,549.65
2022-12-06T06:00:53.626Z,551.14
2022-12-06T06:03:59.270Z,582.97
2022-12-06T06:07:06.961Z,593.43
2022-12-06T06:10:14.455Z,608.30
2022-12-06T06:13:24.598Z,650.23
2022-12-06T06:16:30.347Z,653.43
2022-12-06T06:19:36.834Z,637.93
2022-12-06T06:22:44.849Z,634.83
2022-12-06T06:25:52.853Z,615.24
2022-12-06T06:29:09.893Z,638.12
2022-12-06T06:32:17.138Z,643.70
2022-12-06T06:35:29.773Z,644.92
2022-12-06T06:38:41.546Z,666.39
2022-12-06T06:41:47.493Z,668.94
2022-12-06T06:44:57.491Z,677.76
2022-12-06T06:48:03.122Z,674.56
2022-12-06T06:51:13.023Z,684.37
2022-12-06T06:54:18.576Z,675.53
2022-12-06T06:57:25.217Z,694.48
2022-12-06T07:00:33.393Z,701.20
2022-12-06T07:03:39.875Z,677.03
2022-12-06T07:06:47.207Z,655.87
2022-12-06T07:09:53.797Z,639.26
2022-12-06T07:12:59.350Z,632.49
2022-12-06T07:16:15.652Z,651.92
2022-12-06T07:19:21.528Z,714.53
2022-12-06T07:22:28.330Z,724.36
2022-12-06T07:25:34.941Z,741.46
2022-12-06T07:28:44.330Z,748.02
2022-12-06T07:31:52.606Z,723.02
2022-12-06T07:34:59.110Z,725.68
2022-12-06T07:38:04.936Z,740.33
2022-12-06T07:41:28.492Z,702.99
2022-12-06T07:44:46.673Z,764.17
2022-12-06T07:47:56.267Z,828.12
2022-12-06T07:51:01.845Z,840.23
2022-12-06T07:54:08.487Z,778.06
2022-12-06T07:57:14.011Z,729.75
2022-12-06T08:00:21.617Z,716.11
2022-12-06T08:03:29.806Z,699.88
2022-12-06T08:06:39.185Z,593.44
2022-12-06T08:09:45.343Z,573.92
2022-12-06T08:12:51.891Z,559.19
2022-12-06T08:15:57.633Z,570.30
2022-12-06T08:19:06.773Z,551.74
2022-12-06T08:22:12.408Z,533.16
2022-12-06T08:25:18.974Z,531.83
2022-12-06T08:28:24.756Z,537.26
2022-12-06T08:31:34.923Z,546.73
2022-12-06T08:34:43.954Z,559.57
2022-12-06T08:41:33.955Z,586.42
2022-12-06T08:48:47.650Z,592.05
2022-12-06T08:56:04.689Z,707.63
2022-12-06T08:59:13.234Z,765.29
2022-12-06T09:02:19.049Z,628.80
2022-12-06T09:05:28.753Z,604.07
2022-12-06T09:08:36.730Z,605.53
2022-12-06T09:11:45.420Z,620.86
2022-12-06T09:14:54.766Z,575.52
2022-12-06T09:18:18.826Z,564.41
2022-12-06T09:25:45.232Z,583.51
2022-12-06T09:29:05.182Z,560.29
2022-12-06T09:51:50.999Z,458.83
2022-12-06T09:55:34.038Z,440.92
2022-12-06T09:59:22.146Z,414.38
2022-12-06T10:03:18.492Z,480.49
2022-12-06T10:06:46.579Z,509.98
2022-12-06T10:10:21.123Z,469.71
2022-12-06T10:13:59.418Z,431.32
2022-12-06T10:17:31.735Z,483.06
2022-12-06T10:20:54.466Z,441.65
2022-12-06T10:24:24.065Z,423.71
2022-12-06T10:28:00.744Z,534.16
2022-12-06T10:32:19.526Z,370.81
2022-12-06T10:35:58.282Z,365.60
2022-12-06T10:39:48.639Z,237.44
2022-12-06T10:43:37.610Z,204.71
2022-12-06T10:47:23.758Z,238.03
2022-12-06T10:52:03.478Z,267.31
2022-12-06T10:55:44.149Z,294.46
2022-12-06T10:59:09.335Z,268.89
2022-12-06T11:03:01.113Z,313.34
2022-12-06T11:07:06.741Z,357.22
2022-12-06T11:10:38.747Z,324.23
2022-12-06T11:14:26.444Z,279.21
2022-12-06T11:17:51.091Z,299.34
2022-12-06T11:21:25.658Z,271.83
2022-12-06T11:25:13.926Z,260.94
2022-12-06T11:29:04.605Z,246.93
2022-12-06T11:32:24.060Z,282.04
2022-12-06T11:35:32.885Z,243.64
2022-12-06T11:38:47.134Z,235.13
2022-12-06T11:42:04.909Z,229.77
2022-12-06T11:45:29.018Z,254.81
2022-12-06T11:48:43.867Z,274.17
2022-12-06T11:51:53.107Z,261.19
2022-12-06T11:55:08.946Z,216.69
2022-12-06T11:58:29.413Z,216.12
2022-12-06T12:01:50.694Z,221.54
2022-12-06T12:04:56.860Z,207.35
2022-12-06T12:08:20.166Z,246.74
2022-12-06T12:11:33.149Z,164.89
2022-12-06T12:14:51.032Z,176.49
2022-12-06T12:18:08.036Z,221.16
2022-12-06T12:21:17.378Z,247.62
2022-12-06T12:25:17.797Z,239.18
2022-12-06T12:28:29.901Z,245.06
2022-12-06T12:31:36.231Z,272.72
2022-12-06T12:34:48.298Z,300.52
2022-12-06T12:38:00.372Z,279.38
2022-12-06T12:41:29.481Z,290.63
2022-12-06T12:44:43.287Z,318.55
2022-12-06T12:48:06.281Z,319.78
2022-12-06T12:51:35.779Z,313.37
2022-12-06T12:54:44.079Z,301.94
2022-12-06T12:57:55.641Z,269.12
2022-12-06T13:01:25.538Z,260.51
2022-12-06T13:05:17.235Z,284.36
2022-12-06T13:08:37.921Z,316.05
2022-12-06T13:11:57.290Z,517.97
2022-12-06T13:15:30.464Z,354.77
2022-12-06T13:18:55.495Z,261.59
2022-12-06T13:22:31.453Z,291.29
2022-12-06T13:25:49.755Z,215.79
2022-12-06T13:29:02.848Z,244.80
2022-12-06T13:35:56.241Z,173.88
2022-12-06T13:39:44.901Z,159.01
2022-12-06T13:43:02.963Z,153.07
2022-12-06T13:46:38.132Z,136.66
2022-12-06T13:49:59.080Z,154.25
2022-12-06T14:23:26.310Z,294.75
2022-12-06T14:55:26.824Z,249.70
2022-12-06T15:53:29.991Z,127.40
2022-12-06T15:56:38.337Z,197.31
2022-12-06T16:43:17.174Z,263.58
2022-12-06T16:46:32.867Z,556.44
2022-12-06T16:49:46.488Z,498.93
2022-12-06T16:52:55.736Z,438.70
2022-12-06T16:56:02.209Z,700.89
2022-12-06T16:59:08.963Z,452.86
2022-12-06T17:02:47.569Z,886.45
2022-12-06T18:17:27.981Z,295.02
